createdAt,value
2019-04-03T00:00:41.923Z,98717.34
2019-04-03T00:03:12.421Z,98712.72
2019-04-03T00:05:42.848Z,98717.55
2019-04-03T00:08:13.377Z,98714.48
2019-04-03T00:10:43.902Z,98717.28
2019-04-03T00:13:14.378Z,98721.55
2019-04-03T00:15:45.280Z,98725.11
2019-04-03T00:18:16.735Z,98730.45
2019-04-03T00:20:48.844Z,98729.77
2019-04-03T00:23:20.588Z,98738.02
2019-04-03T00:25:52.387Z,98733.19
2019-04-03T00:28:23.264Z,98732.11
2019-04-03T00:30:53.701Z,98724.91
2019-04-03T00:33:24.239Z,98725.76
2019-04-03T00:35:54.737Z,98724.91
2019-04-03T00:38:25.220Z,98720.15
2019-04-03T00:40:55.986Z,98718.81
2019-04-03T00:43:26.456Z,98718.81
2019-04-03T00:45:57.258Z,98721.55
2019-04-03T00:48:28.132Z,98721.67
2019-04-03T00:50:58.565Z,98722.88
2019-04-03T00:53:28.996Z,98714.73
2019-04-03T00:55:59.456Z,98721.84
2019-04-03T00:58:39.093Z,98718.96
2019-04-03T01:01:12.110Z,98719.09
2019-04-03T01:03:42.956Z,98718.89
2019-04-03T01:06:13.377Z,98719.80
2019-04-03T01:08:43.931Z,98723.91
2019-04-03T01:11:14.411Z,98722.44
2019-04-03T01:13:44.945Z,98721.81
2019-04-03T01:16:15.395Z,98716.48
2019-04-03T01:18:51.645Z,98722.44
2019-04-03T01:21:22.615Z,98709.22
2019-04-03T01:23:53.045Z,98703.77
2019-04-03T01:26:23.622Z,98703.05
2019-04-03T01:28:54.004Z,98701.16
2019-04-03T01:31:24.480Z,98695.17
2019-04-03T01:33:54.922Z,98692.76
2019-04-03T01:36:25.384Z,98695.17
2019-04-03T01:38:56.240Z,98685.00
2019-04-03T01:41:27.079Z,98686.21
2019-04-03T01:43:57.513Z,98678.19
2019-04-03T01:46:28.432Z,98676.86
2019-04-03T01:48:59.021Z,98670.86
2019-04-03T01:51:29.928Z,98674.37
2019-04-03T01:54:02.318Z,98673.11
2019-04-03T01:56:33.857Z,98667.98
2019-04-03T01:59:06.571Z,98674.67
2019-04-03T02:01:38.677Z,98676.06
2019-04-03T02:04:12.227Z,98673.72
2019-04-03T02:06:43.743Z,98673.29
2019-04-03T02:09:16.003Z,98675.69
2019-04-03T02:11:48.934Z,98671.20
2019-04-03T02:14:21.096Z,98665.45
2019-04-03T02:16:53.212Z,98659.27
2019-04-03T02:19:25.729Z,98653.56
2019-04-03T02:21:57.992Z,98649.89
2019-04-03T02:24:27.384Z,98649.90
2019-04-03T02:26:58.195Z,98650.45
2019-04-03T02:29:28.697Z,98643.70
2019-04-03T02:31:59.131Z,98648.09
2019-04-03T02:34:33.649Z,98650.30
2019-04-03T02:37:01.755Z,98646.81
2019-04-03T02:39:32.550Z,98642.02
2019-04-03T02:42:03.084Z,98644.62
2019-04-03T02:44:34.792Z,98643.14
2019-04-03T02:47:05.365Z,98628.66
2019-04-03T02:49:36.796Z,98633.05
2019-04-03T02:52:07.315Z,98634.59
2019-04-03T02:54:41.588Z,98634.11
2019-04-03T02:57:12.076Z,98633.26
2019-04-03T02:59:43.076Z,98624.11
2019-04-03T03:02:13.760Z,98615.69
2019-04-03T03:04:44.281Z,98618.09
2019-04-03T03:07:14.792Z,98611.98
2019-04-03T03:09:47.781Z,98619.39
2019-04-03T03:12:19.056Z,98614.77
2019-04-03T03:14:50.329Z,98616.64
2019-04-03T03:17:23.356Z,98618.44
2019-04-03T03:19:54.349Z,98621.84
2019-04-03T03:22:25.079Z,98611.22
2019-04-03T03:24:59.729Z,98607.45
2019-04-03T03:27:30.301Z,98609.98
2019-04-03T03:30:00.851Z,98603.50
2019-04-03T03:32:35.710Z,98604.05
2019-04-03T03:35:12.489Z,98598.08
2019-04-03T03:37:38.876Z,98593.18
2019-04-03T03:40:09.575Z,98589.45
2019-04-03T03:42:40.716Z,98594.34
2019-04-03T03:45:11.603Z,98589.22
2019-04-03T03:47:42.861Z,98591.78
2019-04-03T03:50:13.603Z,98591.39
2019-04-03T03:52:44.137Z,98590.20
2019-04-03T03:55:14.839Z,98587.25
2019-04-03T03:57:45.593Z,98585.27
2019-04-03T04:00:16.593Z,98588.55
2019-04-03T04:02:47.418Z,98584.22
2019-04-03T04:05:21.383Z,98590.80
2019-04-03T04:07:50.837Z,98586.14
2019-04-03T04:10:25.288Z,98586.61
2019-04-03T04:12:54.633Z,98588.33
2019-04-03T04:15:28.794Z,98588.33
2019-04-03T04:17:57.299Z,98585.14
2019-04-03T04:20:28.283Z,98582.90
2019-04-03T04:22:59.693Z,98585.91
2019-04-03T04:25:31.223Z,98588.95
2019-04-03T04:28:01.850Z,98582.82
2019-04-03T04:30:32.718Z,98581.34
2019-04-03T04:33:03.191Z,98586.05
2019-04-03T04:35:33.962Z,98590.05
2019-04-03T04:38:04.403Z,98585.67
2019-04-03T04:40:35.206Z,98586.48
2019-04-03T04:43:07.447Z,98590.28
2019-04-03T04:45:37.755Z,98586.86
2019-04-03T04:48:08.192Z,98585.81
2019-04-03T04:50:38.999Z,98583.72
2019-04-03T04:53:09.885Z,98584.34
2019-04-03T04:55:40.679Z,98588.48
2019-04-03T04:58:12.231Z,98587.34
2019-04-03T05:00:42.979Z,98598.37
2019-04-03T05:03:13.520Z,98600.91
2019-04-03T05:05:44.239Z,98607.56
2019-04-03T05:08:14.754Z,98601.09
2019-04-03T05:10:48.398Z,98599.29
2019-04-03T05:13:17.868Z,98602.57
2019-04-03T05:15:48.459Z,98597.84
2019-04-03T05:18:20.051Z,98602.15
2019-04-03T05:20:51.412Z,98602.03
2019-04-03T05:23:21.865Z,98601.98
2019-04-03T05:25:52.779Z,98601.79
2019-04-03T05:28:24.863Z,98609.84
2019-04-03T05:30:55.787Z,98602.53
2019-04-03T05:33:26.404Z,98610.97
2019-04-03T05:35:56.841Z,98613.83
2019-04-03T05:38:28.859Z,98614.02
2019-04-03T05:40:59.400Z,98616.16
2019-04-03T05:43:31.084Z,98618.77
2019-04-03T05:46:02.094Z,98615.25
2019-04-03T05:48:33.791Z,98619.45
2019-04-03T05:51:04.255Z,98623.26
2019-04-03T05:53:36.684Z,98626.45
2019-04-03T05:56:07.299Z,98632.59
2019-04-03T05:58:37.773Z,98628.27
2019-04-03T06:01:10.814Z,98635.64
2019-04-03T06:03:44.493Z,98639.52
2019-04-03T06:06:14.487Z,98638.84
2019-04-03T06:08:45.856Z,98643.84
2019-04-03T06:11:16.549Z,98653.13
2019-04-03T06:13:48.031Z,98647.47
2019-04-03T06:16:19.093Z,98652.16
2019-04-03T06:18:49.778Z,98648.19
2019-04-03T06:21:20.325Z,98643.39
2019-04-03T06:23:52.560Z,98647.02
2019-04-03T06:26:23.472Z,98648.62
2019-04-03T06:28:54.362Z,98647.75
2019-04-03T06:31:26.446Z,98645.83
2019-04-03T06:33:56.920Z,98645.08
2019-04-03T06:36:27.401Z,98648.23
2019-04-03T06:38:58.185Z,98650.38
2019-04-03T06:41:28.613Z,98655.97
2019-04-03T06:43:59.093Z,98658.18
2019-04-03T06:46:29.931Z,98656.91
2019-04-03T06:49:01.431Z,98657.77
2019-04-03T06:51:32.772Z,98657.17
2019-04-03T06:54:07.162Z,98667.53
2019-04-03T06:56:38.352Z,98663.20
2019-04-03T06:59:09.437Z,98662.84
2019-04-03T07:01:39.928Z,98660.85
2019-04-03T07:04:10.484Z,98662.19
2019-04-03T07:06:40.960Z,98667.72
2019-04-03T07:09:21.843Z,98667.59
2019-04-03T07:11:44.088Z,98669.45
2019-04-03T07:14:14.751Z,98661.58
2019-04-03T07:16:45.446Z,98667.25
2019-04-03T07:19:16.001Z,98661.84
2019-04-03T07:21:46.836Z,98661.52
2019-04-03T07:24:17.581Z,98659.53
2019-04-03T07:26:48.199Z,98660.81
2019-04-03T07:29:19.061Z,98663.88
2019-04-03T07:31:49.492Z,98666.16
2019-04-03T07:34:19.926Z,98666.36
2019-04-03T07:36:51.167Z,98668.25
2019-04-03T07:39:21.718Z,98664.05
2019-04-03T07:41:54.126Z,98667.44
2019-04-03T07:44:24.497Z,98663.81
2019-04-03T07:46:55.697Z,98660.30
2019-04-03T07:49:26.256Z,98660.13
2019-04-03T07:51:56.738Z,98664.70
2019-04-03T07:54:27.554Z,98669.85
2019-04-03T07:56:58.176Z,98665.16
2019-04-03T07:59:28.627Z,98666.49
2019-04-03T08:01:59.503Z,98668.22
2019-04-03T08:04:30.062Z,98669.75
2019-04-03T08:07:02.115Z,98672.72
2019-04-03T08:09:32.668Z,98678.39
2019-04-03T08:12:04.578Z,98674.64
2019-04-03T08:14:36.692Z,98678.39
2019-04-03T08:17:07.123Z,98673.69
2019-04-03T08:19:37.942Z,98673.48
2019-04-03T08:22:08.471Z,98673.13
2019-04-03T08:24:40.126Z,98675.02
2019-04-03T08:27:11.154Z,98668.05
2019-04-03T08:29:41.677Z,98665.95
2019-04-03T08:32:13.729Z,98667.23
2019-04-03T08:34:44.316Z,98664.69
2019-04-03T08:37:27.662Z,98672.96
2019-04-03T08:39:49.159Z,98672.56
2019-04-03T08:42:20.770Z,98676.45
2019-04-03T08:44:51.266Z,98676.38
2019-04-03T08:47:21.795Z,98676.95
2019-04-03T08:49:52.429Z,98684.61
2019-04-03T08:52:22.872Z,98691.64
2019-04-03T08:54:53.725Z,98691.07
2019-04-03T08:57:24.140Z,98689.94
2019-04-03T08:59:54.581Z,98684.95
2019-04-03T09:02:25.502Z,98685.08
2019-04-03T09:04:55.957Z,98676.59
2019-04-03T09:07:26.839Z,98685.48
2019-04-03T09:10:00.426Z,98684.80
2019-04-03T09:12:29.691Z,98681.39
2019-04-03T09:15:00.238Z,98681.27
2019-04-03T09:17:33.460Z,98682.00
2019-04-03T09:20:04.148Z,98679.23
2019-04-03T09:22:34.613Z,98672.05
2019-04-03T09:25:05.944Z,98670.88
2019-04-03T09:27:37.964Z,98668.73
2019-04-03T09:30:15.629Z,98659.27
2019-04-03T09:32:45.486Z,98658.05
2019-04-03T09:35:16.240Z,98658.95
2019-04-03T09:37:46.973Z,98657.81
2019-04-03T09:40:19.248Z,98658.83
2019-04-03T09:42:51.263Z,98656.68
2019-04-03T09:45:22.047Z,98650.92
2019-04-03T09:47:52.649Z,98653.45
2019-04-03T09:50:23.099Z,98644.00
2019-04-03T09:52:55.221Z,98636.80
2019-04-03T09:55:26.325Z,98638.05
2019-04-03T09:57:56.855Z,98626.90
2019-04-03T10:00:27.592Z,98624.67
2019-04-03T10:02:58.052Z,98622.64
2019-04-03T10:05:29.794Z,98623.72
2019-04-03T10:08:00.420Z,98617.84
2019-04-03T10:10:30.826Z,98621.28
2019-04-03T10:13:01.393Z,98618.60
2019-04-03T10:15:32.032Z,98615.21
2019-04-03T10:18:03.092Z,98619.52
2019-04-03T10:20:33.937Z,98616.02
2019-04-03T10:23:05.477Z,98618.49
2019-04-03T10:25:37.051Z,98611.38
2019-04-03T10:28:08.461Z,98611.37
2019-04-03T10:30:38.902Z,98600.30
2019-04-03T10:33:09.373Z,98609.52
2019-04-03T10:35:39.978Z,98606.72
2019-04-03T10:38:10.435Z,98610.20
2019-04-03T10:40:40.885Z,98614.85
2019-04-03T10:43:11.655Z,98608.22
2019-04-03T10:45:42.286Z,98606.84
2019-04-03T10:48:12.818Z,98598.73
2019-04-03T10:50:43.668Z,98603.89
2019-04-03T10:53:14.458Z,98602.52
2019-04-03T10:55:44.904Z,98601.92
2019-04-03T10:58:15.623Z,98594.23
2019-04-03T11:00:46.227Z,98589.41
2019-04-03T11:03:16.699Z,98586.77
2019-04-03T11:05:47.233Z,98578.64
2019-04-03T11:08:18.044Z,98582.22
2019-04-03T11:10:48.623Z,98579.34
2019-04-03T11:13:19.166Z,98578.03
2019-04-03T11:15:50.373Z,98578.86
2019-04-03T11:18:21.823Z,98573.72
2019-04-03T11:20:53.185Z,98580.93
2019-04-03T11:23:36.943Z,98578.47
2019-04-03T11:25:57.648Z,98568.27
2019-04-03T11:28:28.432Z,98570.53
2019-04-03T11:31:01.153Z,98570.01
2019-04-03T11:33:31.898Z,98564.25
2019-04-03T11:36:02.618Z,98561.57
2019-04-03T11:38:33.928Z,98564.96
2019-04-03T11:41:13.471Z,98567.32
2019-04-03T11:43:36.976Z,98552.46
2019-04-03T11:46:08.334Z,98551.97
2019-04-03T11:48:39.019Z,98544.31
2019-04-03T11:51:09.666Z,98551.04
2019-04-03T11:53:40.139Z,98547.41
2019-04-03T11:56:13.318Z,98548.14
2019-04-03T11:58:44.228Z,98542.78
2019-04-03T12:01:16.747Z,98542.98
2019-04-03T12:03:48.280Z,98542.24
2019-04-03T12:06:21.066Z,98540.19
2019-04-03T12:08:51.624Z,98539.76
2019-04-03T12:11:22.684Z,98543.55
2019-04-03T12:13:53.179Z,98542.30
2019-04-03T12:16:25.899Z,98537.95
2019-04-03T12:18:56.186Z,98540.62
2019-04-03T12:21:26.918Z,98546.59
2019-04-03T12:23:58.221Z,98540.34
2019-04-03T12:26:30.931Z,98532.23
2019-04-03T12:29:01.520Z,98533.54
2019-04-03T12:31:32.003Z,98527.01
2019-04-03T12:34:05.214Z,98532.56
2019-04-03T12:36:34.895Z,98527.59
2019-04-03T12:39:11.632Z,98518.94
2019-04-03T12:41:43.159Z,98520.75
2019-04-03T12:44:14.472Z,98521.14
2019-04-03T12:46:46.330Z,98515.94
2019-04-03T12:49:17.026Z,98510.25
2019-04-03T12:51:48.217Z,98506.40
2019-04-03T12:54:20.265Z,98500.80
2019-04-03T12:56:51.396Z,98499.45
2019-04-03T12:59:21.808Z,98499.63
2019-04-03T13:01:53.822Z,98499.09
2019-04-03T13:04:25.811Z,98488.70
2019-04-03T13:06:56.730Z,98486.94
2019-04-03T13:09:27.457Z,98484.47
2019-04-03T13:11:58.871Z,98483.83
2019-04-03T13:14:30.179Z,98479.59
2019-04-03T13:17:01.692Z,98482.38
2019-04-03T13:19:32.166Z,98473.09
2019-04-03T13:22:02.661Z,98479.03
2019-04-03T13:24:33.094Z,98477.53
2019-04-03T13:27:03.580Z,98483.95
2019-04-03T13:29:34.014Z,98477.22
2019-04-03T13:32:05.157Z,98479.02
2019-04-03T13:34:35.666Z,98470.53
2019-04-03T13:37:06.487Z,98469.68
2019-04-03T13:39:37.191Z,98463.34
2019-04-03T13:42:07.662Z,98451.52
2019-04-03T13:44:38.096Z,98448.75
2019-04-03T13:47:09.252Z,98448.16
2019-04-03T13:49:40.302Z,98457.52
2019-04-03T13:52:10.829Z,98448.77
2019-04-03T13:54:42.248Z,98457.83
2019-04-03T13:57:14.684Z,98458.59
2019-04-03T13:59:45.321Z,98452.02
2019-04-03T14:02:16.113Z,98462.61
2019-04-03T14:04:48.611Z,98462.34
2019-04-03T14:07:19.081Z,98458.16
2019-04-03T14:09:53.801Z,98458.16
2019-04-03T14:12:22.368Z,98451.27
2019-04-03T14:14:53.569Z,98446.19
2019-04-03T14:17:24.145Z,98443.27
2019-04-03T14:19:55.065Z,98439.98
2019-04-03T14:22:25.986Z,98433.92
2019-04-03T14:24:56.443Z,98438.92
2019-04-03T14:27:30.695Z,98433.70
2019-04-03T14:29:59.803Z,98429.89
2019-04-03T14:32:30.344Z,98437.38
2019-04-03T14:35:10.260Z,98433.13
2019-04-03T14:37:33.587Z,98423.16
2019-04-03T14:40:04.411Z,98428.27
2019-04-03T14:42:35.078Z,98422.34
2019-04-03T14:45:06.957Z,98420.02
2019-04-03T14:47:37.584Z,98415.62
2019-04-03T14:50:09.568Z,98411.58
2019-04-03T14:52:40.011Z,98396.16
2019-04-03T14:55:17.707Z,98403.66
2019-04-03T14:57:43.531Z,98399.31
2019-04-03T15:00:26.635Z,98387.66
2019-04-03T15:02:49.113Z,98386.89
2019-04-03T15:05:19.740Z,98387.41
2019-04-03T15:07:51.491Z,98389.71
2019-04-03T15:10:22.250Z,98395.14
2019-04-03T15:12:53.791Z,98397.44
2019-04-03T15:15:27.547Z,98391.22
2019-04-03T15:18:00.047Z,98392.77
2019-04-03T15:20:32.785Z,98383.78
2019-04-03T15:23:05.255Z,98382.80
2019-04-03T15:25:36.122Z,98383.26
2019-04-03T15:28:06.670Z,98382.58
2019-04-03T15:30:37.285Z,98392.91
2019-04-03T15:33:08.988Z,98389.47
2019-04-03T15:35:40.211Z,98394.42
2019-04-03T15:38:13.401Z,98389.77
2019-04-03T15:40:44.013Z,98394.75
2019-04-03T15:43:16.279Z,98396.91
2019-04-03T15:45:47.712Z,98392.97
2019-04-03T15:48:20.996Z,98393.73
2019-04-03T15:50:50.270Z,98384.34
2019-04-03T15:53:23.762Z,98382.78
2019-04-03T15:55:53.450Z,98386.00
2019-04-03T15:58:25.698Z,98395.06
2019-04-03T16:00:57.342Z,98385.06
2019-04-03T16:03:28.423Z,98365.08
2019-04-03T16:06:02.748Z,98366.30
2019-04-03T16:08:32.182Z,98364.88
2019-04-03T16:11:02.802Z,98363.08
2019-04-03T16:13:33.198Z,98363.59
2019-04-03T16:16:03.852Z,98363.39
2019-04-03T16:18:36.227Z,98369.50
2019-04-03T16:21:07.470Z,98376.45
2019-04-03T16:23:38.689Z,98373.12
2019-04-03T16:26:10.088Z,98364.43
2019-04-03T16:28:42.397Z,98356.91
2019-04-03T16:31:14.947Z,98353.18
2019-04-03T16:33:45.757Z,98359.98
2019-04-03T16:36:17.119Z,98355.64
2019-04-03T16:38:49.668Z,98347.95
2019-04-03T16:41:20.420Z,98351.38
2019-04-03T16:43:50.904Z,98358.09
2019-04-03T16:46:21.384Z,98357.13
2019-04-03T16:48:51.820Z,98348.48
2019-04-03T16:51:22.721Z,98357.05
2019-04-03T16:53:53.224Z,98367.06
2019-04-03T16:56:24.062Z,98375.70
2019-04-03T16:58:59.576Z,98367.20
2019-04-03T17:01:28.552Z,98370.22
2019-04-03T17:03:59.002Z,98375.41
2019-04-03T17:06:29.456Z,98365.11
2019-04-03T17:09:00.257Z,98362.87
2019-04-03T17:11:30.718Z,98367.38
2019-04-03T17:14:01.194Z,98377.69
2019-04-03T17:16:32.073Z,98372.59
2019-04-03T17:19:03.524Z,98372.00
2019-04-03T17:21:37.525Z,98372.94
2019-04-03T17:24:06.177Z,98376.05
2019-04-03T17:26:48.358Z,98377.15
2019-04-03T17:29:09.234Z,98381.48
2019-04-03T17:31:42.017Z,98371.91
2019-04-03T17:34:13.632Z,98365.73
2019-04-03T17:36:44.859Z,98367.92
2019-04-03T17:39:15.903Z,98353.41
2019-04-03T17:41:46.821Z,98346.58
2019-04-03T17:44:17.679Z,98349.02
2019-04-03T17:46:49.383Z,98352.88
2019-04-03T17:49:20.022Z,98350.98
2019-04-03T17:51:50.468Z,98347.39
2019-04-03T17:54:21.720Z,98351.20
2019-04-03T17:56:52.158Z,98338.66
2019-04-03T17:59:23.034Z,98334.63
2019-04-03T18:01:53.503Z,98332.48
2019-04-03T18:04:23.951Z,98330.02
2019-04-03T18:06:57.273Z,98323.45
2019-04-03T18:09:26.608Z,98331.30
2019-04-03T18:11:58.026Z,98320.51
2019-04-03T18:14:28.734Z,98328.86
2019-04-03T18:17:01.130Z,98329.92
2019-04-03T18:19:37.821Z,98330.44
2019-04-03T18:22:04.427Z,98329.75
2019-04-03T18:24:34.874Z,98328.41
2019-04-03T18:27:06.542Z,98320.28
2019-04-03T18:29:37.976Z,98314.09
2019-04-03T18:32:08.542Z,98306.34
2019-04-03T18:34:39.116Z,98298.08
2019-04-03T18:37:09.934Z,98295.84
2019-04-03T18:39:41.370Z,98296.86
2019-04-03T18:42:12.329Z,98295.75
2019-04-03T18:44:43.468Z,98294.08
2019-04-03T18:47:15.847Z,98286.57
2019-04-03T18:49:46.281Z,98294.08
2019-04-03T18:52:18.261Z,98291.83
2019-04-03T18:54:48.722Z,98282.95
2019-04-03T18:57:19.181Z,98265.47
2019-04-03T18:59:49.658Z,98262.98
2019-04-03T19:02:20.841Z,98267.54
2019-04-03T19:05:01.257Z,98267.86
2019-04-03T19:07:24.383Z,98276.19
2019-04-03T19:10:06.419Z,98261.47
2019-04-03T19:12:35.565Z,98267.09
2019-04-03T19:15:02.582Z,98267.92
2019-04-03T19:17:32.613Z,98274.09
2019-04-03T19:20:10.246Z,98278.52
2019-04-03T19:22:35.721Z,98267.30
2019-04-03T19:25:07.977Z,98266.38
2019-04-03T19:27:38.873Z,98257.13
2019-04-03T19:30:11.717Z,98253.01
2019-04-03T19:32:43.352Z,98252.09
2019-04-03T19:35:16.925Z,98254.34
2019-04-03T19:37:47.730Z,98261.56
2019-04-03T19:40:18.480Z,98252.48
2019-04-03T19:42:49.111Z,98259.28
2019-04-03T19:45:21.376Z,98256.60
2019-04-03T19:47:54.672Z,98241.78
2019-04-03T19:50:23.897Z,98223.05
2019-04-03T19:52:54.707Z,98213.91
2019-04-03T19:55:25.926Z,98214.12
2019-04-03T19:57:57.866Z,98203.94
2019-04-03T20:00:28.618Z,98211.85
2019-04-03T20:03:01.920Z,98205.06
2019-04-03T20:05:33.122Z,98199.89
2019-04-03T20:08:03.974Z,98187.97
2019-04-03T20:10:34.761Z,98175.83
2019-04-03T20:13:05.297Z,98183.25
2019-04-03T20:15:36.988Z,98187.14
2019-04-03T20:18:07.506Z,98191.73
2019-04-03T20:20:37.999Z,98209.52
2019-04-03T20:23:08.933Z,98203.86
2019-04-03T20:25:40.618Z,98190.81
2019-04-03T20:28:11.482Z,98178.04
2019-04-03T20:30:42.138Z,98163.67
2019-04-03T20:33:13.731Z,98159.27
2019-04-03T20:35:45.106Z,98151.65
2019-04-03T20:38:17.064Z,98138.91
2019-04-03T20:40:50.465Z,98138.39
2019-04-03T20:43:21.259Z,98134.70
2019-04-03T20:45:51.717Z,98137.27
2019-04-03T20:48:22.222Z,98136.84
2019-04-03T20:50:53.295Z,98139.72
2019-04-03T20:53:24.142Z,98154.41
2019-04-03T20:55:56.031Z,98159.27
2019-04-03T20:58:27.143Z,98163.77
2019-04-03T21:01:06.158Z,98163.06
2019-04-03T21:03:30.157Z,98186.27
2019-04-03T21:06:00.600Z,98220.78
2019-04-03T21:08:31.751Z,98242.48
2019-04-03T21:11:02.893Z,98258.58
2019-04-03T21:13:33.363Z,98286.72
2019-04-03T21:16:03.827Z,98324.50
2019-04-03T21:18:34.373Z,98357.04
2019-04-03T21:21:04.820Z,98378.39
2019-04-03T21:23:35.252Z,98367.84
2019-04-03T21:26:07.299Z,98357.72
2019-04-03T21:28:40.778Z,98391.27
2019-04-03T21:31:10.143Z,98418.03
2019-04-03T21:33:40.575Z,98421.23
2019-04-03T21:36:11.328Z,98462.86
2019-04-03T21:38:42.270Z,98478.89
2019-04-03T21:41:12.778Z,98505.60
2019-04-03T21:43:43.204Z,98501.97
2019-04-03T21:46:13.674Z,98486.32
2019-04-03T21:48:45.362Z,98487.98
2019-04-03T21:51:16.202Z,98462.72
2019-04-03T21:53:46.691Z,98454.41
2019-04-03T21:56:17.467Z,98467.22
2019-04-03T21:58:47.893Z,98460.90
2019-04-03T22:01:27.848Z,98453.59
2019-04-03T22:03:58.277Z,98421.85
2019-04-03T22:06:29.015Z,98427.84
2019-04-03T22:09:00.573Z,98426.54
2019-04-03T22:11:31.162Z,98424.55
2019-04-03T22:14:01.588Z,98420.10
2019-04-03T22:16:32.060Z,98415.98
2019-04-03T22:19:03.168Z,98420.41
2019-04-03T22:21:33.611Z,98423.39
2019-04-03T22:24:06.565Z,98427.02
2019-04-03T22:26:36.581Z,98424.18
2019-04-03T22:29:07.004Z,98413.58
2019-04-03T22:31:37.814Z,98400.28
2019-04-03T22:34:08.243Z,98392.48
2019-04-03T22:36:38.667Z,98361.34
2019-04-03T22:39:09.133Z,98338.67
2019-04-03T22:41:40.942Z,98332.34
2019-04-03T22:44:11.689Z,98321.70
2019-04-03T22:46:42.175Z,98322.14
2019-04-03T22:49:12.598Z,98316.31
2019-04-03T22:51:43.886Z,98313.06
2019-04-03T22:54:14.342Z,98304.38
2019-04-03T22:56:45.891Z,98296.88
2019-04-03T22:59:16.891Z,98292.41
2019-04-03T23:01:47.352Z,98277.82
2019-04-03T23:04:17.773Z,98281.44
2019-04-03T23:06:49.709Z,98295.26
2019-04-03T23:09:20.555Z,98290.40
2019-04-03T23:11:51.009Z,98288.81
2019-04-03T23:14:21.480Z,98279.73
2019-04-03T23:16:52.000Z,98286.75
2019-04-03T23:19:22.474Z,98310.38
2019-04-03T23:21:54.852Z,98313.22
2019-04-03T23:24:28.548Z,98325.33
2019-04-03T23:26:57.761Z,98330.46
2019-04-03T23:29:28.959Z,98331.49
2019-04-03T23:31:59.474Z,98338.77
2019-04-03T23:34:29.942Z,98335.33
2019-04-03T23:37:00.413Z,98339.20
2019-04-03T23:39:31.290Z,98329.41
2019-04-03T23:42:01.762Z,98330.86
2019-04-03T23:44:32.520Z,98338.35
2019-04-03T23:47:03.052Z,98339.71
2019-04-03T23:49:33.522Z,98345.72
2019-04-03T23:52:03.989Z,98348.53
2019-04-03T23:54:34.977Z,98344.03
2019-04-03T23:57:05.453Z,98335.36
2019-04-03T23:59:35.915Z,98333.00
